Time;durP1;ratioP1;P1;durP2;ratioP2;P2;SDS_P1;SDS_P2;PMS_P1;PMS_P2;Temp;Humidity;BMP_temperature;BMP_pressure;BME280_temperature;BME280_humidity;BME280_pressure;Samples;Min_cycle;Max_cycle;Signal;HPM_P1;HPM_P2
2021/09/18 00:01:55;;;;;;;4.30;3.13;;;13.60;99.90;;;;;;5037408;28;20223;-81
2021/09/18 00:04:22;;;;;;;4.27;2.90;;;13.50;99.90;;;;;;5038149;28;20268;-79
2021/09/18 00:06:49;;;;;;;3.63;2.47;;;13.60;99.90;;;;;;5045374;28;20286;-80
2021/09/18 00:09:16;;;;;;;3.37;2.83;;;13.60;99.90;;;;;;5059073;28;20229;-82
2021/09/18 00:11:43;;;;;;;3.50;2.87;;;13.60;99.90;;;;;;5058853;28;20575;-79
2021/09/18 00:14:10;;;;;;;5.13;3.00;;;13.50;99.90;;;;;;5045629;28;20215;-83
2021/09/18 00:16:38;;;;;;;6.53;3.07;;;13.50;99.90;;;;;;5037739;28;20227;-79
2021/09/18 00:19:05;;;;;;;3.27;2.47;;;13.40;99.90;;;;;;5043223;28;20718;-79
2021/09/18 00:21:32;;;;;;;1.83;1.50;;;13.50;99.90;;;;;;5043484;28;20204;-81
2021/09/18 00:23:59;;;;;;;2.87;1.40;;;13.50;99.90;;;;;;5039780;28;20204;-79
2021/09/18 00:26:25;;;;;;;1.50;0.90;;;13.50;99.90;;;;;;5038641;28;20219;-79
2021/09/18 00:28:52;;;;;;;1.30;1.20;;;13.50;99.90;;;;;;5040739;28;20200;-80
2021/09/18 00:31:19;;;;;;;1.77;1.23;;;13.50;99.90;;;;;;5039933;28;20239;-78
2021/09/18 00:33:47;;;;;;;2.23;1.30;;;13.40;99.90;;;;;;5039434;28;20210;-82
2021/09/18 00:36:14;;;;;;;4.23;1.70;;;13.40;99.90;;;;;;5042138;28;20302;-80
2021/09/18 00:38:41;;;;;;;1.57;1.47;;;13.20;99.90;;;;;;5043804;28;20247;-80
2021/09/18 00:41:08;;;;;;;2.93;1.70;;;13.10;99.90;;;;;;5043314;28;20238;-83
2021/09/18 00:43:35;;;;;;;2.53;1.70;;;13.00;99.90;;;;;;5043446;28;20210;-81
2021/09/18 00:46:02;;;;;;;3.70;1.37;;;13.00;99.90;;;;;;5023952;28;20221;-82
2021/09/18 00:48:29;;;;;;;2.87;1.83;;;12.90;99.90;;;;;;5025108;28;20235;-81
2021/09/18 00:50:57;;;;;;;4.60;1.83;;;12.80;99.90;;;;;;5042146;28;20281;-81
2021/09/18 00:53:25;;;;;;;1.60;1.50;;;12.80;99.90;;;;;;5043559;28;20239;-79
2021/09/18 00:55:52;;;;;;;3.43;1.90;;;12.60;99.90;;;;;;5043959;28;20606;-78
2021/09/18 00:58:19;;;;;;;3.90;2.13;;;12.60;99.90;;;;;;5043385;28;20242;-78
2021/09/18 01:00:45;;;;;;;3.90;1.90;;;12.70;99.90;;;;;;5042638;28;20243;-78
2021/09/18 01:03:12;;;;;;;2.13;1.70;;;12.60;99.90;;;;;;5042900;28;20199;-82
2021/09/18 01:05:40;;;;;;;2.97;1.50;;;12.50;99.90;;;;;;5041242;28;20220;-80
2021/09/18 01:08:10;;;;;;;6.03;2.17;;;12.50;99.90;;;;;;5042457;28;20274;-79
2021/09/18 01:10:37;;;;;;;2.10;1.63;;;12.50;99.90;;;;;;5041966;28;20224;-81
2021/09/18 01:13:09;;;;;;;3.27;2.17;;;12.40;99.90;;;;;;5023329;28;20228;-80
2021/09/18 01:15:37;;;;;;;3.17;1.60;;;12.40;99.90;;;;;;5021795;28;20193;-81
2021/09/18 01:18:05;;;;;;;3.93;2.20;;;12.40;99.90;;;;;;5035321;28;20670;-78
2021/09/18 01:20:33;;;;;;;3.43;1.90;;;12.30;99.90;;;;;;5039094;28;20223;-79
2021/09/18 01:23:02;;;;;;;2.47;2.10;;;12.00;99.90;;;;;;5043826;28;20639;-78
2021/09/18 01:25:32;;;;;;;4.30;1.87;;;12.10;99.90;;;;;;5042270;28;20246;-80
2021/09/18 01:28:00;;;;;;;4.13;1.83;;;12.20;99.90;;;;;;5041230;28;20615;-79
2021/09/18 01:30:29;;;;;;;1.73;1.63;;;12.20;99.90;;;;;;5035783;28;20224;-79
2021/09/18 01:32:57;;;;;;;2.33;1.80;;;12.20;99.90;;;;;;5038005;28;20651;-82
2021/09/18 01:35:24;;;;;;;5.27;1.90;;;12.10;99.90;;;;;;5043089;28;20211;-82
2021/09/18 01:37:51;;;;;;;4.10;2.00;;;12.00;99.90;;;;;;5043762;28;20231;-81
2021/09/18 01:40:21;;;;;;;2.40;1.80;;;12.00;99.90;;;;;;5044287;28;20219;-82
2021/09/18 01:42:50;;;;;;;2.27;1.60;;;11.90;99.90;;;;;;5044402;28;20262;-81
2021/09/18 01:45:17;;;;;;;3.10;1.83;;;12.00;99.90;;;;;;5041876;28;20222;-80
2021/09/18 01:47:46;;;;;;;2.10;1.70;;;12.00;99.90;;;;;;5044236;28;20230;-81
2021/09/18 01:50:21;;;;;;;2.77;1.60;;;12.00;99.90;;;;;;5044172;28;20640;-83
2021/09/18 01:52:48;;;;;;;2.07;1.63;;;12.00;99.90;;;;;;5043275;28;20203;-83
2021/09/18 01:55:16;;;;;;;2.93;1.90;;;12.00;99.90;;;;;;5043797;28;20258;-82
2021/09/18 01:57:44;;;;;;;2.37;1.60;;;12.00;99.90;;;;;;5041253;28;20243;-79
2021/09/18 02:00:14;;;;;;;2.80;1.67;;;11.80;99.90;;;;;;5049132;28;20224;-78
2021/09/18 02:02:41;;;;;;;2.20;1.57;;;11.80;99.90;;;;;;5041206;28;20458;-79
2021/09/18 02:05:09;;;;;;;2.33;1.60;;;11.80;99.90;;;;;;5041182;28;20676;-81
2021/09/18 02:07:37;;;;;;;3.37;1.73;;;11.80;99.90;;;;;;5040545;28;20686;-79
2021/09/18 02:10:04;;;;;;;2.73;1.37;;;11.80;99.90;;;;;;5041997;28;20230;-78
2021/09/18 02:12:31;;;;;;;3.10;1.50;;;11.80;99.90;;;;;;5046663;28;20289;-78
2021/09/18 02:14:58;;;;;;;4.90;2.03;;;11.70;99.90;;;;;;5046613;28;20206;-79
2021/09/18 02:17:26;;;;;;;1.87;1.60;;;11.80;99.90;;;;;;5041216;28;20259;-80
2021/09/18 02:19:53;;;;;;;3.40;1.83;;;11.70;99.90;;;;;;5040380;28;20226;-79
2021/09/18 02:22:20;;;;;;;1.97;1.77;;;11.70;99.90;;;;;;5037482;28;20703;-81
2021/09/18 02:24:47;;;;;;;3.20;1.80;;;11.60;99.90;;;;;;5036498;28;20247;-79
2021/09/18 02:27:14;;;;;;;2.97;1.83;;;11.40;99.90;;;;;;5040702;28;20270;-81
2021/09/18 02:29:42;;;;;;;4.67;1.80;;;11.30;99.90;;;;;;5041596;28;20263;-79
2021/09/18 02:32:08;;;;;;;5.43;1.70;;;11.20;99.90;;;;;;5041682;28;20235;-79
2021/09/18 02:34:37;;;;;;;2.07;1.87;;;11.20;99.90;;;;;;5040833;28;20497;-79
2021/09/18 02:37:04;;;;;;;2.67;1.97;;;11.20;99.90;;;;;;5039612;28;20283;-78
2021/09/18 02:39:31;;;;;;;3.13;1.60;;;11.10;99.90;;;;;;5041442;28;20254;-80
2021/09/18 02:41:58;;;;;;;1.50;1.40;;;11.00;99.90;;;;;;5030295;28;20216;-78
2021/09/18 02:44:24;;;;;;;3.47;1.93;;;11.00;99.90;;;;;;5040979;28;20259;-81
2021/09/18 02:46:51;;;;;;;2.00;1.40;;;11.10;99.90;;;;;;5038963;28;20288;-78
2021/09/18 02:49:18;;;;;;;2.60;1.93;;;11.10;99.90;;;;;;5038942;28;20207;-81
2021/09/18 02:51:47;;;;;;;1.67;1.43;;;11.10;99.90;;;;;;5037249;28;20375;-79
2021/09/18 02:54:14;;;;;;;3.40;1.67;;;11.10;99.90;;;;;;5040114;28;20196;-78
2021/09/18 02:56:42;;;;;;;4.90;1.77;;;11.00;99.90;;;;;;5038449;28;20495;-78
2021/09/18 02:59:09;;;;;;;3.27;2.10;;;11.00;99.90;;;;;;5040520;28;20219;-80
2021/09/18 03:01:35;;;;;;;4.07;1.50;;;11.10;99.90;;;;;;5042474;28;20235;-81
2021/09/18 03:04:02;;;;;;;3.10;1.70;;;11.10;99.90;;;;;;5040960;28;20239;-80
2021/09/18 03:06:29;;;;;;;1.63;1.53;;;11.10;99.90;;;;;;5042228;28;20246;-82
2021/09/18 03:08:58;;;;;;;2.53;1.37;;;11.10;99.90;;;;;;5043354;28;20203;-81
2021/09/18 03:11:25;;;;;;;2.00;1.60;;;11.10;99.90;;;;;;5040854;28;20261;-81
2021/09/18 03:13:52;;;;;;;3.60;1.80;;;11.10;99.90;;;;;;5044393;28;20199;-81
2021/09/18 03:16:19;;;;;;;2.17;1.53;;;11.10;99.90;;;;;;5041761;28;20310;-82
2021/09/18 03:18:45;;;;;;;2.53;1.80;;;11.10;99.90;;;;;;5043274;28;20231;-82
2021/09/18 03:21:13;;;;;;;1.87;1.50;;;11.10;99.90;;;;;;5041710;28;20265;-83
2021/09/18 03:23:40;;;;;;;1.90;1.63;;;11.00;99.90;;;;;;5042372;28;20239;-84
2021/09/18 03:26:08;;;;;;;2.17;1.67;;;10.90;99.90;;;;;;5040670;28;20224;-83
2021/09/18 03:28:35;;;;;;;3.67;2.00;;;11.00;99.90;;;;;;5043473;28;20231;-80
2021/09/18 03:31:02;;;;;;;2.93;1.60;;;11.00;99.90;;;;;;5043285;28;20211;-83
2021/09/18 03:33:29;;;;;;;1.73;1.50;;;10.90;99.90;;;;;;5041326;28;20267;-80
2021/09/18 03:35:56;;;;;;;1.47;1.33;;;11.10;99.90;;;;;;5041018;28;20228;-81
2021/09/18 03:38:23;;;;;;;1.80;1.67;;;11.10;99.90;;;;;;5041150;28;20242;-80
2021/09/18 03:40:50;;;;;;;3.57;1.60;;;11.00;99.90;;;;;;5041771;28;20263;-84
2021/09/18 03:43:18;;;;;;;3.27;1.60;;;11.00;99.90;;;;;;5041987;28;20199;-81
2021/09/18 03:45:45;;;;;;;3.37;1.70;;;11.00;99.90;;;;;;5041991;28;20251;-80
2021/09/18 03:48:11;;;;;;;2.50;1.93;;;11.00;99.90;;;;;;5041797;28;20759;-82
2021/09/18 03:50:38;;;;;;;2.60;1.63;;;10.90;99.90;;;;;;5041554;28;20695;-80
2021/09/18 03:53:05;;;;;;;2.90;1.77;;;10.80;99.90;;;;;;5042433;28;20200;-80
2021/09/18 03:55:32;;;;;;;3.20;1.87;;;10.90;99.90;;;;;;5041015;28;20207;-81
2021/09/18 03:57:59;;;;;;;3.97;1.67;;;11.10;99.90;;;;;;5036224;28;20228;-81
2021/09/18 04:00:27;;;;;;;2.90;1.60;;;10.80;99.90;;;;;;5032702;28;20235;-83
2021/09/18 04:02:54;;;;;;;2.50;1.80;;;10.70;99.90;;;;;;5035515;28;20669;-81
2021/09/18 04:05:21;;;;;;;2.40;1.83;;;10.70;99.90;;;;;;5040503;28;20212;-84
2021/09/18 04:07:48;;;;;;;5.03;1.57;;;10.80;99.90;;;;;;5040696;28;20271;-80
2021/09/18 04:10:15;;;;;;;1.90;1.40;;;10.80;99.90;;;;;;5043340;28;20263;-81
2021/09/18 04:12:42;;;;;;;3.10;1.70;;;10.80;99.90;;;;;;5037003;28;20200;-82
2021/09/18 04:15:10;;;;;;;4.30;1.80;;;10.70;99.90;;;;;;5034594;28;20263;-81
2021/09/18 04:17:38;;;;;;;1.37;1.27;;;10.70;99.90;;;;;;5040361;28;20254;-81
2021/09/18 04:20:08;;;;;;;4.03;1.70;;;10.90;99.90;;;;;;5032013;28;20295;-81
2021/09/18 04:22:35;;;;;;;1.60;1.50;;;10.90;99.90;;;;;;5036325;28;20204;-81
2021/09/18 04:25:02;;;;;;;2.73;1.73;;;10.90;99.90;;;;;;5045007;28;20276;-80
2021/09/18 04:27:29;;;;;;;2.20;1.70;;;10.90;99.90;;;;;;5043506;28;20318;-84
2021/09/18 04:29:56;;;;;;;2.43;1.50;;;10.90;99.90;;;;;;5044627;28;20203;-82
2021/09/18 04:32:23;;;;;;;3.07;1.70;;;11.00;99.90;;;;;;5045021;28;20246;-83
2021/09/18 04:34:51;;;;;;;2.37;1.50;;;11.10;99.90;;;;;;5043688;28;20218;-80
2021/09/18 04:37:18;;;;;;;3.60;1.80;;;11.00;99.90;;;;;;5044616;28;20311;-81
2021/09/18 04:39:45;;;;;;;2.23;1.53;;;11.00;99.90;;;;;;5043416;28;20258;-81
2021/09/18 04:42:11;;;;;;;2.13;1.70;;;11.20;99.90;;;;;;5044907;28;20271;-81
2021/09/18 04:44:38;;;;;;;2.13;1.83;;;11.20;99.90;;;;;;5047687;28;20214;-80
2021/09/18 04:47:05;;;;;;;3.83;1.60;;;11.20;99.90;;;;;;5048542;28;20287;-81
2021/09/18 04:49:32;;;;;;;3.07;1.87;;;11.30;99.90;;;;;;5048399;28;20271;-80
2021/09/18 04:52:00;;;;;;;2.10;1.90;;;11.40;99.90;;;;;;5042077;28;20234;-80
2021/09/18 04:54:27;;;;;;;7.27;3.53;;;11.30;99.90;;;;;;5043591;28;20231;-80
2021/09/18 04:56:54;;;;;;;4.87;2.63;;;11.30;99.90;;;;;;5041525;28;20285;-79
2021/09/18 04:59:21;;;;;;;6.70;4.50;;;11.40;99.90;;;;;;5042784;28;20227;-81
2021/09/18 05:01:48;;;;;;;4.87;2.20;;;11.30;99.90;;;;;;5042244;28;20269;-79
2021/09/18 05:04:15;;;;;;;7.07;1.80;;;11.30;99.90;;;;;;5041326;28;20242;-79
2021/09/18 05:06:42;;;;;;;2.60;1.77;;;11.40;99.90;;;;;;5039226;28;20251;-81
2021/09/18 05:09:10;;;;;;;3.37;1.70;;;11.40;99.90;;;;;;5023485;28;20240;-80
2021/09/18 05:11:37;;;;;;;3.23;1.60;;;11.40;99.90;;;;;;5023281;28;20228;-80
2021/09/18 05:14:04;;;;;;;3.73;2.00;;;11.20;99.90;;;;;;5024767;28;20200;-80
2021/09/18 05:16:31;;;;;;;2.37;1.90;;;11.30;99.90;;;;;;5042741;28;20234;-81
2021/09/18 05:18:58;;;;;;;4.37;1.87;;;11.40;99.90;;;;;;5042485;28;20212;-80
2021/09/18 05:21:26;;;;;;;4.57;1.80;;;11.30;99.90;;;;;;5042045;28;20266;-79
2021/09/18 05:23:53;;;;;;;3.07;1.87;;;11.50;99.90;;;;;;5042719;28;20203;-79
2021/09/18 05:26:21;;;;;;;5.03;2.47;;;11.50;99.90;;;;;;5042325;28;20231;-80
2021/09/18 05:28:49;;;;;;;4.03;2.13;;;11.50;99.90;;;;;;5042677;28;20296;-80
2021/09/18 05:31:16;;;;;;;3.70;1.70;;;11.60;99.90;;;;;;5042736;28;20200;-80
2021/09/18 05:33:43;;;;;;;2.90;1.87;;;11.50;99.90;;;;;;5042305;28;20199;-80
2021/09/18 05:36:10;;;;;;;3.77;1.77;;;11.60;99.90;;;;;;5042385;28;20722;-80
2021/09/18 05:38:36;;;;;;;2.93;2.10;;;11.60;99.90;;;;;;5041618;28;20200;-79
2021/09/18 05:41:03;;;;;;;4.83;1.97;;;11.60;99.90;;;;;;5041679;28;20223;-79
2021/09/18 05:43:32;;;;;;;4.43;1.60;;;11.70;99.90;;;;;;5041562;28;20234;-80
2021/09/18 05:45:58;;;;;;;4.60;2.10;;;11.80;99.90;;;;;;5041519;28;20224;-80
2021/09/18 05:48:25;;;;;;;3.40;2.10;;;11.80;99.90;;;;;;5041654;28;20239;-79
2021/09/18 05:50:52;;;;;;;2.77;1.90;;;11.90;99.90;;;;;;5042086;28;20239;-81
2021/09/18 05:53:19;;;;;;;3.90;1.80;;;11.80;99.90;;;;;;5041948;28;20231;-80
2021/09/18 05:55:46;;;;;;;3.57;1.80;;;11.80;99.90;;;;;;5041786;28;20247;-80
2021/09/18 05:58:13;;;;;;;3.60;2.20;;;11.90;99.90;;;;;;5040724;28;20227;-79
2021/09/18 06:00:41;;;;;;;1.83;1.73;;;12.00;99.90;;;;;;5040441;28;20227;-79
2021/09/18 06:03:08;;;;;;;3.90;2.07;;;12.00;99.90;;;;;;5041738;28;20833;-79
2021/09/18 06:05:35;;;;;;;3.87;1.80;;;12.00;99.90;;;;;;5041062;28;20210;-80
2021/09/18 06:08:02;;;;;;;2.30;1.77;;;12.00;99.90;;;;;;5041895;28;20207;-79
2021/09/18 06:10:29;;;;;;;7.17;4.60;;;12.00;99.90;;;;;;5041342;28;20528;-80
2021/09/18 06:12:56;;;;;;;9.23;3.20;;;12.10;99.90;;;;;;5042510;28;20239;-79
2021/09/18 06:15:23;;;;;;;3.70;3.00;;;12.20;99.90;;;;;;5041636;28;20625;-85
2021/09/18 06:17:51;;;;;;;4.10;2.10;;;12.20;99.90;;;;;;5039864;28;20647;-79
2021/09/18 06:20:18;;;;;;;3.77;2.30;;;12.20;99.90;;;;;;5038813;28;20306;-80
2021/09/18 06:22:45;;;;;;;2.53;2.03;;;12.30;99.90;;;;;;5042556;28;20231;-81
2021/09/18 06:25:12;;;;;;;2.93;2.07;;;12.40;99.90;;;;;;5038775;28;20227;-81
2021/09/18 06:27:39;;;;;;;5.03;2.30;;;12.50;99.90;;;;;;5039314;28;20223;-79
2021/09/18 06:30:08;;;;;;;6.57;2.40;;;12.50;99.90;;;;;;5039695;28;20196;-80
2021/09/18 06:32:35;;;;;;;3.23;2.53;;;12.60;99.90;;;;;;5038681;28;20211;-80
2021/09/18 06:35:05;;;;;;;5.17;2.60;;;12.60;99.90;;;;;;5040842;28;20330;-82
2021/09/18 06:37:32;;;;;;;4.53;2.80;;;12.70;99.90;;;;;;5041495;28;20254;-80
2021/09/18 06:39:59;;;;;;;3.47;2.20;;;12.70;99.90;;;;;;5042112;28;20241;-80
2021/09/18 06:42:25;;;;;;;4.37;2.40;;;12.70;99.90;;;;;;5037408;28;20631;-80
2021/09/18 06:44:52;;;;;;;6.60;1.97;;;12.80;99.90;;;;;;5037143;28;20223;-80
2021/09/18 06:47:19;;;;;;;3.30;2.07;;;12.80;99.90;;;;;;5046743;28;20222;-83
2021/09/18 06:49:46;;;;;;;5.20;2.63;;;12.90;99.90;;;;;;5036662;28;20262;-81
2021/09/18 06:52:14;;;;;;;2.97;2.20;;;13.00;99.90;;;;;;5039213;28;20224;-81
2021/09/18 06:54:43;;;;;;;4.43;1.90;;;13.00;99.90;;;;;;5042802;28;20257;-82
2021/09/18 06:57:11;;;;;;;2.10;1.90;;;13.10;99.90;;;;;;5041926;28;20223;-80
2021/09/18 06:59:39;;;;;;;3.63;2.20;;;13.20;99.90;;;;;;5040242;28;20249;-80
2021/09/18 07:02:08;;;;;;;3.73;2.00;;;13.30;99.90;;;;;;5039957;28;20277;-79
2021/09/18 07:04:35;;;;;;;2.40;2.20;;;13.20;99.90;;;;;;5041407;28;20549;-80
2021/09/18 07:07:03;;;;;;;3.40;2.20;;;13.20;99.90;;;;;;5041179;28;20234;-79
2021/09/18 07:09:31;;;;;;;3.37;2.10;;;13.20;99.90;;;;;;5041794;28;20199;-80
2021/09/18 07:11:59;;;;;;;2.30;2.10;;;13.30;99.90;;;;;;5040397;28;20196;-79
2021/09/18 07:14:25;;;;;;;3.57;2.00;;;13.30;99.90;;;;;;5036556;28;20251;-79
2021/09/18 07:16:52;;;;;;;3.53;2.43;;;13.40;99.90;;;;;;5036491;28;20306;-80
2021/09/18 07:19:19;;;;;;;2.67;2.30;;;13.50;99.90;;;;;;5037149;28;20206;-80
2021/09/18 07:21:46;;;;;;;3.17;2.10;;;13.60;99.90;;;;;;5038627;28;20251;-82
2021/09/18 07:24:13;;;;;;;3.73;2.30;;;13.70;99.90;;;;;;5041265;28;20218;-82
2021/09/18 07:26:41;;;;;;;3.27;2.07;;;13.80;99.90;;;;;;5039318;28;20450;-81
2021/09/18 07:29:08;;;;;;;3.07;2.27;;;13.80;99.90;;;;;;5038641;28;20291;-83
2021/09/18 07:31:35;;;;;;;2.20;2.00;;;13.80;99.90;;;;;;5037790;28;20210;-81
2021/09/18 07:34:02;;;;;;;2.33;2.10;;;13.90;99.90;;;;;;5041209;28;20242;-80
2021/09/18 07:36:29;;;;;;;3.67;1.90;;;13.90;99.90;;;;;;5039613;28;20306;-82
2021/09/18 07:38:55;;;;;;;3.10;2.40;;;14.10;99.90;;;;;;5041227;28;20215;-81
2021/09/18 07:41:22;;;;;;;4.67;2.27;;;14.20;99.90;;;;;;5039069;28;20310;-82
2021/09/18 07:43:51;;;;;;;4.60;2.30;;;14.10;99.90;;;;;;5043449;28;20706;-81
2021/09/18 07:46:18;;;;;;;2.60;2.20;;;14.20;99.90;;;;;;5043354;28;20312;-81
2021/09/18 07:48:45;;;;;;;3.43;2.20;;;14.30;99.90;;;;;;5043023;28;20271;-82
2021/09/18 07:51:12;;;;;;;2.83;2.10;;;14.20;99.90;;;;;;5045093;28;20227;-81
2021/09/18 07:53:39;;;;;;;6.57;2.57;;;14.30;99.90;;;;;;5044693;28;20204;-82
2021/09/18 07:56:06;;;;;;;3.53;2.20;;;14.40;99.90;;;;;;5044037;28;20219;-83
2021/09/18 07:58:33;;;;;;;4.33;2.60;;;14.30;99.90;;;;;;5043182;28;20219;-82
2021/09/18 08:01:01;;;;;;;2.90;2.60;;;14.30;99.90;;;;;;5043177;28;20655;-81
2021/09/18 08:03:28;;;;;;;5.90;3.73;;;14.40;99.90;;;;;;5043128;28;20203;-82
2021/09/18 08:05:55;;;;;;;7.83;3.50;;;14.50;99.90;;;;;;5043415;28;20224;-82
2021/09/18 08:08:22;;;;;;;7.20;3.33;;;14.40;99.90;;;;;;5043295;28;20249;-82
2021/09/18 08:10:49;;;;;;;4.40;3.67;;;14.50;99.90;;;;;;5044209;28;20203;-81
2021/09/18 08:13:15;;;;;;;7.13;3.70;;;14.50;99.90;;;;;;5045283;28;20322;-81
2021/09/18 08:15:42;;;;;;;6.33;3.70;;;14.50;99.90;;;;;;5042850;28;20269;-82
2021/09/18 08:18:11;;;;;;;5.97;3.60;;;14.50;99.90;;;;;;5044107;28;20231;-81
2021/09/18 08:20:38;;;;;;;8.73;4.10;;;14.60;99.90;;;;;;5044001;28;20238;-82
2021/09/18 08:23:05;;;;;;;5.57;3.73;;;14.70;99.90;;;;;;5039520;28;20231;-78
2021/09/18 08:25:32;;;;;;;6.60;4.37;;;14.70;99.90;;;;;;5039319;28;20766;-79
2021/09/18 08:27:59;;;;;;;10.00;4.70;;;14.60;99.90;;;;;;5038904;28;20211;-78
2021/09/18 08:30:26;;;;;;;5.13;3.80;;;14.60;99.90;;;;;;5040950;28;20191;-80
2021/09/18 08:32:53;;;;;;;8.03;4.23;;;14.60;99.90;;;;;;5043189;28;20215;-80
2021/09/18 08:35:21;;;;;;;6.97;4.23;;;14.70;99.90;;;;;;5042713;28;20667;-80
2021/09/18 08:37:48;;;;;;;5.20;3.83;;;14.80;99.90;;;;;;5042339;28;20200;-79
2021/09/18 08:40:15;;;;;;;7.57;4.23;;;14.90;99.90;;;;;;5043275;28;20290;-79
2021/09/18 08:42:43;;;;;;;8.17;4.17;;;14.90;99.90;;;;;;5043120;28;20258;-78
2021/09/18 08:45:13;;;;;;;6.40;4.40;;;14.90;99.90;;;;;;5060934;28;20187;-79
2021/09/18 08:47:42;;;;;;;8.47;4.70;;;15.00;99.90;;;;;;5038103;28;20215;-78
2021/09/18 08:50:13;;;;;;;7.23;4.70;;;15.10;99.90;;;;;;5033864;28;20188;-77
2021/09/18 08:52:43;;;;;;;7.97;5.07;;;15.20;99.90;;;;;;5034547;28;20492;-77
2021/09/18 08:55:11;;;;;;;7.17;4.50;;;15.30;99.90;;;;;;5016549;28;20295;-79
2021/09/18 08:57:38;;;;;;;9.00;4.50;;;15.40;99.90;;;;;;5029264;28;20247;-78
2021/09/18 09:00:08;;;;;;;7.17;4.53;;;15.40;99.90;;;;;;5038310;28;20227;-78
2021/09/18 09:02:38;;;;;;;9.60;4.67;;;15.50;99.90;;;;;;5038455;28;20764;-77
2021/09/18 09:05:06;;;;;;;6.20;4.80;;;15.60;99.90;;;;;;5038147;28;20253;-78
2021/09/18 09:07:33;;;;;;;5.67;4.20;;;15.70;99.90;;;;;;5039587;28;20231;-78
2021/09/18 09:10:04;;;;;;;6.50;4.57;;;15.70;99.90;;;;;;5039894;28;20239;-77
2021/09/18 09:12:32;;;;;;;6.47;3.83;;;15.60;99.90;;;;;;5039086;28;20208;-80
2021/09/18 09:15:00;;;;;;;6.77;4.07;;;15.80;99.90;;;;;;5038784;28;20231;-77
2021/09/18 09:17:29;;;;;;;7.70;4.53;;;15.90;99.90;;;;;;5036564;28;20220;-79
2021/09/18 09:19:58;;;;;;;7.77;4.77;;;16.00;99.90;;;;;;5048654;28;20211;-79
2021/09/18 09:22:44;;;;;;;5.65;4.00;;;16.00;99.90;;;;;;5057992;28;20281;-78
2021/09/18 09:25:27;;;;;;;6.28;4.30;;;16.00;99.90;;;;;;5042830;28;20223;-79
2021/09/18 09:27:54;;;;;;;7.00;4.72;;;16.10;99.90;;;;;;5038945;28;20248;-78
2021/09/18 09:30:30;;;;;;;4.43;3.70;;;16.20;99.90;;;;;;5038034;28;20249;-79
2021/09/18 09:33:06;;;;;;;8.27;4.72;;;16.40;99.90;;;;;;5038280;28;20211;-80
2021/09/18 09:35:33;;;;;;;6.85;4.75;;;16.50;99.90;;;;;;5034551;28;20254;-78
2021/09/18 09:38:00;;;;;;;8.57;4.85;;;16.40;99.90;;;;;;5032009;28;20211;-78
2021/09/18 09:40:38;;;;;;;7.38;4.55;;;16.30;99.90;;;;;;5032794;28;20235;-81
2021/09/18 09:43:06;;;;;;;7.00;4.50;;;16.60;99.90;;;;;;5033947;28;20260;-77
2021/09/18 09:45:33;;;;;;;5.35;4.45;;;16.50;99.90;;;;;;5032920;28;20239;-80
2021/09/18 09:48:03;;;;;;;7.00;4.43;;;16.50;99.90;;;;;;5035165;28;20230;-78
2021/09/18 09:50:31;;;;;;;7.07;4.25;;;16.70;99.90;;;;;;5033382;28;20196;-79
2021/09/18 09:52:58;;;;;;;7.22;4.10;;;16.90;99.90;;;;;;5032618;28;20200;-79
2021/09/18 09:55:26;;;;;;;6.30;4.28;;;16.70;99.90;;;;;;5034644;28;20207;-80
2021/09/18 09:58:00;;;;;;;5.45;3.92;;;16.80;99.90;;;;;;5034289;28;20234;-78
2021/09/18 10:00:37;;;;;;;5.90;4.18;;;16.90;99.90;;;;;;5032656;28;20328;-78
2021/09/18 10:03:04;;;;;;;6.85;4.00;;;17.10;99.90;;;;;;5033972;28;20219;-78
2021/09/18 10:05:32;;;;;;;6.38;4.15;;;17.20;99.90;;;;;;5032889;28;20242;-78
2021/09/18 10:08:00;;;;;;;6.38;3.90;;;17.20;99.90;;;;;;5032844;28;20561;-78
2021/09/18 10:10:28;;;;;;;7.03;4.50;;;17.20;99.90;;;;;;5032892;28;20258;-78
2021/09/18 10:12:56;;;;;;;6.20;4.50;;;17.30;99.90;;;;;;5032465;28;20634;-79
2021/09/18 10:15:28;;;;;;;6.82;4.68;;;17.40;99.90;;;;;;5034658;28;20747;-79
2021/09/18 10:17:57;;;;;;;4.70;3.95;;;17.20;99.90;;;;;;5030656;28;20302;-76
2021/09/18 10:23:14;;;;;;;5.88;3.50;;;17.70;99.90;;;;;;4999136;28;20247;-78
2021/09/18 10:25:45;;;;;;;3.85;3.45;;;17.70;99.90;;;;;;5030851;28;20216;-77
2021/09/18 10:28:17;;;;;;;4.82;3.63;;;17.80;99.90;;;;;;5030229;28;20211;-78
2021/09/18 10:30:47;;;;;;;4.63;3.85;;;17.90;99.90;;;;;;5030755;28;20285;-78
2021/09/18 10:33:30;;;;;;;5.10;3.75;;;17.70;99.90;;;;;;5031612;28;20759;-77
2021/09/18 10:35:59;;;;;;;6.35;4.05;;;17.60;99.90;;;;;;5029620;28;20267;-77
2021/09/18 10:38:28;;;;;;;5.13;3.58;;;17.50;99.90;;;;;;5030054;28;20734;-78
2021/09/18 10:41:02;;;;;;;5.03;3.95;;;17.90;99.90;;;;;;5030099;28;20210;-78
2021/09/18 10:43:31;;;;;;;14.82;8.68;;;18.20;99.90;;;;;;5031568;28;20230;-77
2021/09/18 10:46:01;;;;;;;4.82;3.80;;;18.20;99.90;;;;;;5030080;28;20254;-79
2021/09/18 10:48:37;;;;;;;4.07;3.60;;;18.10;99.90;;;;;;5029815;28;20257;-78
2021/09/18 10:51:05;;;;;;;4.72;3.92;;;18.30;99.90;;;;;;5030352;28;20207;-78
2021/09/18 10:53:51;;;;;;;5.40;4.10;;;18.20;99.90;;;;;;5028282;28;20242;-77
2021/09/18 10:56:18;;;;;;;4.45;4.03;;;17.90;99.90;;;;;;5030351;28;20259;-78
2021/09/18 10:59:06;;;;;;;7.47;4.90;;;18.20;99.90;;;;;;5029367;28;20307;-78
2021/09/18 11:01:34;;;;;;;5.30;4.75;;;18.20;99.90;;;;;;5032145;28;20239;-78
2021/09/18 11:04:01;;;;;;;4.63;4.20;;;18.50;99.90;;;;;;5028421;28;20294;-78
2021/09/18 11:06:37;;;;;;;6.88;4.07;;;18.60;99.90;;;;;;5029899;28;20246;-78
2021/09/18 11:09:05;;;;;;;5.05;4.30;;;18.50;99.90;;;;;;5028860;28;20204;-79
2021/09/18 11:11:32;;;;;;;5.38;4.65;;;19.00;99.90;;;;;;5030735;28;20243;-79
2021/09/18 11:14:01;;;;;;;5.30;4.50;;;18.90;99.90;;;;;;5030035;28;20275;-78
2021/09/18 11:16:33;;;;;;;4.70;4.00;;;18.70;99.90;;;;;;5027555;28;20255;-78
2021/09/18 11:19:09;;;;;;;6.25;4.88;;;18.60;99.90;;;;;;5028086;28;20266;-80
2021/09/18 11:21:40;;;;;;;4.50;4.10;;;18.60;99.90;;;;;;5028755;28;20290;-81
2021/09/18 11:24:23;;;;;;;5.55;4.38;;;18.30;99.90;;;;;;5030354;28;20204;-79
2021/09/18 11:26:51;;;;;;;5.88;4.20;;;18.40;99.90;;;;;;5026564;28;20254;-80
2021/09/18 11:29:29;;;;;;;5.22;4.20;;;18.40;99.90;;;;;;5027522;28;20204;-79
2021/09/18 11:32:10;;;;;;;4.53;3.85;;;18.50;99.90;;;;;;5024891;28;20677;-80
2021/09/18 11:34:42;;;;;;;4.65;4.10;;;18.30;99.90;;;;;;5029416;28;20723;-80
2021/09/18 11:37:12;;;;;;;5.05;4.13;;;18.60;99.90;;;;;;5022155;28;20216;-80
2021/09/18 11:40:01;;;;;;;6.20;4.30;;;18.80;99.90;;;;;;5030322;28;20202;-79
2021/09/18 11:42:32;;;;;;;5.28;4.20;;;18.70;99.90;;;;;;5025827;28;20466;-80
2021/09/18 11:45:07;;;;;;;5.22;4.72;;;18.80;99.90;;;;;;5045564;28;20245;-80
2021/09/18 11:47:37;;;;;;;5.88;5.28;;;18.90;99.90;;;;;;5028683;28;20276;-82
2021/09/18 11:50:19;;;;;;;5.13;4.57;;;18.80;99.90;;;;;;5029059;28;20290;-82
2021/09/18 11:52:46;;;;;;;6.05;5.30;;;18.80;99.90;;;;;;5030424;28;20209;-80
2021/09/18 11:55:32;;;;;;;6.60;5.10;;;18.60;99.90;;;;;;5028940;28;20250;-81
2021/09/18 11:58:04;;;;;;;6.47;5.43;;;18.80;99.90;;;;;;5029632;28;20207;-80
2021/09/18 12:00:34;;;;;;;7.25;5.38;;;18.80;99.90;;;;;;5028944;28;20219;-81
2021/09/18 12:03:03;;;;;;;8.10;6.47;;;18.90;99.90;;;;;;5033493;28;20708;-81
2021/09/18 12:05:31;;;;;;;8.13;6.30;;;18.60;99.90;;;;;;5033283;28;20286;-82
2021/09/18 12:08:01;;;;;;;6.70;5.80;;;18.40;99.90;;;;;;5035794;28;20207;-82
2021/09/18 12:10:31;;;;;;;7.57;5.97;;;18.30;99.90;;;;;;5030370;28;20212;-81
2021/09/18 12:13:08;;;;;;;7.05;6.00;;;18.40;99.90;;;;;;5032227;28;20209;-80
2021/09/18 12:15:37;;;;;;;6.30;5.70;;;18.30;99.90;;;;;;5033787;28;20306;-81
2021/09/18 12:18:23;;;;;;;6.40;5.70;;;18.30;99.90;;;;;;5035504;28;20223;-81
2021/09/18 12:20:57;;;;;;;6.20;5.60;;;18.60;99.90;;;;;;5035212;28;20211;-81
2021/09/18 12:23:25;;;;;;;6.30;4.85;;;18.50;99.90;;;;;;5036555;28;20301;-80
2021/09/18 12:25:55;;;;;;;6.97;5.20;;;18.40;99.90;;;;;;5036552;28;20309;-81
2021/09/18 12:28:26;;;;;;;5.60;4.82;;;18.60;99.90;;;;;;5038745;28;20270;-81
2021/09/18 12:30:53;;;;;;;5.97;4.65;;;18.60;99.90;;;;;;5032848;28;20307;-81
2021/09/18 12:33:29;;;;;;;5.32;4.82;;;18.70;99.90;;;;;;5043261;28;20235;-81
2021/09/18 12:36:05;;;;;;;5.20;4.10;;;18.80;99.90;;;;;;5033425;28;20291;-81
2021/09/18 12:38:32;;;;;;;3.83;3.42;;;18.70;99.90;;;;;;5035935;28;20290;-81
2021/09/18 12:41:02;;;;;;;5.40;3.90;;;18.50;99.90;;;;;;5036457;28;20196;-81
2021/09/18 12:43:29;;;;;;;5.35;4.50;;;18.40;99.90;;;;;;5039559;28;20215;-81
2021/09/18 12:46:10;;;;;;;5.05;4.38;;;18.50;99.90;;;;;;5033046;28;20301;-82
2021/09/18 12:48:39;;;;;;;4.35;3.75;;;18.80;99.90;;;;;;5041302;28;20249;-80
2021/09/18 12:51:10;;;;;;;2.90;2.70;;;18.60;99.90;;;;;;5037516;28;21592;-81
2021/09/18 12:53:52;;;;;;;3.70;3.30;;;18.40;99.90;;;;;;5033423;28;20200;-80
2021/09/18 12:56:35;;;;;;;4.80;3.75;;;18.60;99.90;;;;;;5030769;28;20224;-80
2021/09/18 12:59:17;;;;;;;3.42;3.13;;;18.60;99.90;;;;;;5029158;28;20211;-81